Time;durP1;ratioP1;P1;durP2;ratioP2;P2;SDS_P1;SDS_P2;PMS_P1;PMS_P2;Temp;Humidity;BMP_temperature;BMP_pressure;BME280_temperature;BME280_humidity;BME280_pressure;Samples;Min_cycle;Max_cycle;Signal;HPM_P1;HPM_P2
2022/08/07 00:02:02;;;;;;;;;4.00;4.00;;;;;20.84;33.40;102091.41;6313305;22;47001;-88
2022/08/07 00:04:27;;;;;;;;;2.00;2.00;;;;;20.72;33.42;102089.94;6313831;22;45582;-88
2022/08/07 00:06:52;;;;;;;;;2.25;2.25;;;;;20.74;33.70;102085.38;6314234;22;46018;-88
2022/08/07 00:09:21;;;;;;;;;4.00;3.00;;;;;20.72;33.51;102097.09;6314312;22;45243;-87
2022/08/07 00:11:46;;;;;;;;;3.75;3.75;;;;;20.60;33.80;102092.88;6315154;22;47339;-87
2022/08/07 00:14:11;;;;;;;;;3.50;3.50;;;;;20.61;33.62;102097.31;6314626;22;45290;-88
2022/08/07 00:16:37;;;;;;;;;5.75;3.25;;;;;20.55;33.58;102092.13;6314490;22;45477;-85
2022/08/07 00:19:02;;;;;;;;;2.50;2.50;;;;;20.40;34.15;102075.47;6340197;22;45444;-84
2022/08/07 00:21:27;;;;;;;;;3.33;3.33;;;;;20.30;34.17;102065.91;6339940;22;48021;-84
2022/08/07 00:23:53;;;;;;;;;3.50;3.50;;;;;20.39;34.49;102086.22;6315088;22;45236;-85
2022/08/07 00:26:18;;;;;;;;;3.50;3.00;;;;;20.29;34.31;102074.84;6342372;22;45220;-84
2022/08/07 00:28:44;;;;;;;;;3.25;3.25;;;;;20.06;34.50;102037.94;6341767;22;45311;-84
2022/08/07 00:31:10;;;;;;;;;3.00;3.00;;;;;20.20;34.35;102070.56;6339543;22;47653;-85
2022/08/07 00:33:37;;;;;;;;;2.00;2.00;;;;;20.16;34.77;102066.22;6313808;22;45177;-84
2022/08/07 00:36:07;;;;;;;;;2.00;2.00;;;;;20.12;34.93;102059.19;6338972;22;45338;-84
2022/08/07 00:38:35;;;;;;;;;2.50;2.50;;;;;20.17;34.59;102081.34;6314251;22;45606;-85
2022/08/07 00:41:01;;;;;;;;;2.50;2.50;;;;;19.97;35.11;102055.06;6313441;22;47324;-84
2022/08/07 00:43:27;;;;;;;;;3.00;3.00;;;;;20.03;35.12;102059.41;6341793;22;45671;-84
2022/08/07 00:45:52;;;;;;;;;3.00;3.00;;;;;19.73;35.09;102016.38;6340000;22;45169;-85
2022/08/07 00:48:17;;;;;;;;;3.00;3.00;;;;;19.84;34.86;102034.84;6339685;22;45376;-84
2022/08/07 00:50:43;;;;;;;;;4.00;4.00;;;;;20.01;35.14;102074.56;6344109;22;45381;-84
2022/08/07 00:53:08;;;;;;;;;4.00;2.75;;;;;19.71;35.26;102030.69;6339693;22;45394;-84
2022/08/07 00:55:35;;;;;;;;;2.00;2.00;;;;;19.92;35.02;102058.75;6313991;22;44789;-84
2022/08/07 00:58:01;;;;;;;;;4.25;3.00;;;;;19.74;35.71;102034.16;6313584;22;45620;-84
2022/08/07 01:00:27;;;;;;;;;4.50;4.50;;;;;19.83;35.35;102041.09;6313149;22;47951;-83
2022/08/07 01:02:53;;;;;;;;;2.50;2.50;;;;;19.58;35.54;102009.53;6339535;22;45088;-84
2022/08/07 01:05:20;;;;;;;;;3.50;3.50;;;;;19.54;35.41;101998.94;6343152;22;45191;-84
2022/08/07 01:07:45;;;;;;;;;4.75;3.00;;;;;19.60;35.61;102018.38;6313107;22;45528;-85
2022/08/07 01:10:11;;;;;;;;;2.50;2.50;;;;;19.80;35.48;102043.84;6312976;22;47133;-83
2022/08/07 01:12:39;;;;;;;;;2.50;2.50;;;;;19.80;35.95;102038.50;6313186;22;45184;-84
2022/08/07 01:15:06;;;;;;;;;3.00;3.00;;;;;19.65;35.67;102009.41;6338758;22;45374;-84
2022/08/07 01:17:33;;;;;;;;;4.50;4.00;;;;;19.69;35.68;102014.66;6315093;22;45432;-85
2022/08/07 01:20:10;;;;;;;;;2.75;2.00;;;;;19.86;35.68;102050.84;6340832;22;46816;-84
2022/08/07 01:22:38;;;;;;;;;2.00;2.00;;;;;19.83;35.81;102042.00;6341142;22;45392;-85
2022/08/07 01:25:05;;;;;;;;;2.00;2.00;;;;;19.71;35.87;102034.22;6313178;22;45330;-84
2022/08/07 01:27:31;;;;;;;;;3.50;3.50;;;;;19.59;36.17;102008.63;6312995;22;45440;-84
2022/08/07 01:29:56;;;;;;;;;2.25;2.25;;;;;19.63;36.46;102019.25;6313093;22;47114;-84
2022/08/07 01:32:22;;;;;;;;;3.00;3.00;;;;;19.55;36.00;102014.94;6314891;22;45385;-85
2022/08/07 01:34:48;;;;;;;;;2.50;2.50;;;;;19.50;36.44;102006.13;6341864;22;45281;-84
2022/08/07 01:37:16;;;;;;;;;2.00;2.00;;;;;19.61;36.92;102024.59;6341331;22;45259;-84
2022/08/07 01:39:43;;;;;;;;;3.75;3.00;;;;;19.76;36.45;102056.41;6312839;22;47195;-84
2022/08/07 01:42:08;;;;;;;;;2.50;2.00;;;;;19.54;36.51;102012.28;6341261;22;45256;-85
2022/08/07 01:44:34;;;;;;;;;3.25;3.25;;;;;19.72;36.68;102046.66;6313874;22;45276;-85
2022/08/07 01:47:00;;;;;;;;;4.25;4.00;;;;;19.67;37.20;102045.88;6341805;22;45483;-85
2022/08/07 01:49:25;;;;;;;;;2.75;2.75;;;;;19.58;36.71;102036.25;6341095;22;45416;-84
2022/08/07 01:51:51;;;;;;;;;4.25;3.00;;;;;19.66;36.67;102060.16;6339713;22;45704;-85
2022/08/07 01:54:22;;;;;;;;;1.00;1.00;;;;;19.60;36.91;102046.91;6314401;22;45288;-85
2022/08/07 01:56:53;;;;;;;;;4.00;4.00;;;;;19.49;36.78;102025.75;6343015;22;45342;-84
2022/08/07 01:59:45;;;;;;;;;2.00;2.00;;;;;19.55;37.02;102046.13;6315846;22;47143;-84
2022/08/07 02:02:18;;;;;;;;;3.00;1.50;;;;;19.41;37.32;102040.19;6317303;22;45790;-84
2022/08/07 02:04:52;;;;;;;;;2.00;2.00;;;;;19.47;37.47;102056.94;6314568;22;45420;-85
2022/08/07 02:07:21;;;;;;;;;3.50;3.00;;;;;19.22;37.21;102021.84;6313618;22;45213;-85
2022/08/07 02:09:50;;;;;;;;;5.75;3.50;;;;;19.41;37.57;102057.09;6313969;22;47078;-85
2022/08/07 02:12:18;;;;;;;;;4.00;4.00;;;;;19.20;37.28;102025.44;6315311;22;45226;-85
2022/08/07 02:14:51;;;;;;;;;2.00;2.00;;;;;19.14;37.37;102019.31;6343470;22;45219;-85
2022/08/07 02:17:17;;;;;;;;;2.00;2.00;;;;;19.18;37.95;102029.00;6314146;22;45704;-85
2022/08/07 02:19:47;;;;;;;;;3.75;3.50;;;;;19.30;38.00;102046.59;6314409;22;47333;-85
2022/08/07 02:22:18;;;;;;;;;2.00;2.00;;;;;19.29;37.71;102057.31;6314037;22;45204;-85
2022/08/07 02:24:46;;;;;;;;;4.00;3.50;;;;;19.17;37.78;102035.28;6340614;22;45394;-85
2022/08/07 02:27:16;;;;;;;;;3.00;3.00;;;;;19.23;38.21;102052.97;6315021;22;45259;-84
2022/08/07 02:29:42;;;;;;;;;3.00;3.00;;;;;19.06;37.99;102031.94;6342466;22;45626;-85
2022/08/07 02:32:09;;;;;;;;;3.00;3.00;;;;;19.08;38.34;102046.09;6342810;22;45151;-85
2022/08/07 02:34:37;;;;;;;;;3.67;3.67;;;;;19.09;37.94;102055.91;6314513;22;45358;-85
2022/08/07 02:37:07;;;;;;;;;3.25;3.25;;;;;18.83;38.69;102002.97;6314595;22;45441;-85
2022/08/07 02:39:34;;;;;;;;;3.00;3.00;;;;;18.96;38.56;102027.66;6315460;22;47045;-85
2022/08/07 02:42:01;;;;;;;;;2.75;2.75;;;;;18.99;38.40;102038.28;6343730;22;44742;-85
2022/08/07 02:44:28;;;;;;;;;2.50;2.50;;;;;19.04;38.61;102048.88;6314646;22;45358;-85
2022/08/07 02:46:58;;;;;;;;;2.00;2.00;;;;;19.03;38.56;102058.69;6314109;22;45241;-84
2022/08/07 02:49:24;;;;;;;;;3.50;3.50;;;;;18.87;38.77;102028.72;6314057;22;47322;-85
2022/08/07 02:51:50;;;;;;;;;2.00;2.00;;;;;18.71;39.20;102003.13;6315439;22;45299;-84
2022/08/07 02:54:17;;;;;;;;;4.25;4.00;;;;;18.62;38.90;101988.19;6344429;22;45327;-84
2022/08/07 02:56:45;;;;;;;;;3.25;3.25;;;;;18.81;39.21;102022.59;6341036;22;45465;-84
2022/08/07 02:59:17;;;;;;;;;3.25;3.25;;;;;18.89;39.14;102040.22;6340057;22;47042;-84
2022/08/07 03:01:44;;;;;;;;;2.00;2.00;;;;;18.60;39.14;101994.44;6339322;22;45384;-85
2022/08/07 03:04:11;;;;;;;;;3.00;3.00;;;;;18.81;39.42;102035.94;6314380;22;45255;-85
2022/08/07 03:06:38;;;;;;;;;3.75;3.00;;;;;18.71;39.83;102020.06;6315148;22;45395;-84
2022/08/07 03:09:06;;;;;;;;;3.50;3.50;;;;;18.72;39.56;102026.25;6341037;22;47277;-84
2022/08/07 03:11:34;;;;;;;;;3.25;2.75;;;;;18.73;39.55;102028.00;6314026;22;45596;-84
2022/08/07 03:14:02;;;;;;;;;5.00;3.25;;;;;18.46;39.68;101982.22;6314816;22;45437;-84
2022/08/07 03:16:29;;;;;;;;;3.75;3.75;;;;;18.71;39.67;102022.72;6314645;22;45541;-84
2022/08/07 03:18:55;;;;;;;;;3.00;3.00;;;;;18.61;39.63;102009.56;6313802;22;46978;-84
2022/08/07 03:21:23;;;;;;;;;3.50;3.50;;;;;18.60;39.83;102006.00;6315971;22;45260;-84
2022/08/07 03:23:50;;;;;;;;;3.00;2.00;;;;;18.50;40.10;101993.75;6314394;22;45435;-84
2022/08/07 03:26:18;;;;;;;;;3.25;3.25;;;;;18.32;39.79;101965.59;6342797;22;45495;-84
2022/08/07 03:28:47;;;;;;;;;4.00;4.00;;;;;18.71;39.84;102033.41;6341749;22;45622;-83
2022/08/07 03:31:19;;;;;;;;;3.00;3.00;;;;;18.57;40.01;102014.06;6341834;22;45192;-84
2022/08/07 03:33:50;;;;;;;;;4.00;4.00;;;;;18.68;40.30;102036.13;6315077;22;45393;-84
2022/08/07 03:36:17;;;;;;;;;3.00;3.00;;;;;18.58;40.36;102014.94;6343646;22;45227;-84
2022/08/07 03:38:45;;;;;;;;;4.00;3.50;;;;;18.61;40.27;102025.56;6313821;22;47277;-84
2022/08/07 03:41:12;;;;;;;;;3.75;3.75;;;;;18.54;40.41;102018.56;6340126;22;45358;-85
2022/08/07 03:43:38;;;;;;;;;3.00;3.00;;;;;18.57;40.48;102035.38;6340487;22;45183;-84
2022/08/07 03:46:05;;;;;;;;;2.50;2.50;;;;;18.56;40.49;102030.97;6340179;22;45111;-84
2022/08/07 03:48:35;;;;;;;;;3.00;3.00;;;;;18.36;40.73;101999.28;6315071;22;48501;-85
2022/08/07 03:51:02;;;;;;;;;4.00;4.00;;;;;18.40;40.59;102002.78;6313863;22;45914;-85
2022/08/07 03:53:27;;;;;;;;;3.25;3.25;;;;;18.18;40.63;101981.81;6313895;22;45232;-84
2022/08/07 03:55:54;;;;;;;;;2.00;1.25;;;;;18.56;40.93;102046.09;6313613;22;45181;-85
2022/08/07 03:58:21;;;;;;;;;3.75;2.75;;;;;18.16;41.02;101980.94;6340439;22;47294;-85
2022/08/07 04:00:48;;;;;;;;;4.00;3.00;;;;;18.49;41.34;102035.50;6313695;22;45205;-84
2022/08/07 04:03:15;;;;;;;;;2.75;2.75;;;;;18.51;41.09;102033.72;6315457;22;45315;-85
2022/08/07 04:05:41;;;;;;;;;3.25;3.25;;;;;18.25;41.23;102006.56;6313696;22;45713;-85
2022/08/07 04:08:10;;;;;;;;;5.00;4.00;;;;;18.50;41.24;102041.75;6341683;22;46118;-84
2022/08/07 04:10:36;;;;;;;;;3.50;2.25;;;;;18.49;40.94;102048.84;6313831;22;45176;-85
2022/08/07 04:13:02;;;;;;;;;3.00;2.00;;;;;18.50;41.23;102036.41;6342506;22;45421;-85
2022/08/07 04:15:28;;;;;;;;;2.00;2.00;;;;;18.41;41.39;102021.41;6314414;22;45441;-85
2022/08/07 04:17:54;;;;;;;;;3.75;3.75;;;;;18.31;41.16;102014.50;6341753;22;46362;-84
2022/08/07 04:20:20;;;;;;;;;2.00;2.00;;;;;18.22;41.81;101979.97;6342114;22;45310;-84
2022/08/07 04:22:48;;;;;;;;;4.75;4.50;;;;;18.35;41.65;102016.19;6342098;22;45207;-85
2022/08/07 04:25:14;;;;;;;;;4.75;4.75;;;;;18.19;41.38;101983.56;6340005;22;45424;-85
2022/08/07 04:27:40;;;;;;;;;6.00;5.00;;;;;18.25;41.69;101998.56;6342273;22;45226;-85
2022/08/07 04:30:06;;;;;;;;;4.50;2.75;;;;;18.02;41.59;101967.81;6344032;22;45203;-84
2022/08/07 04:32:33;;;;;;;;;2.50;2.50;;;;;18.42;41.74;102025.00;6340343;22;45131;-85
2022/08/07 04:35:00;;;;;;;;;3.25;2.00;;;;;18.29;41.45;102011.84;6314089;22;45926;-85
2022/08/07 04:37:26;;;;;;;;;2.50;2.50;;;;;18.30;41.81;101996.72;6339848;22;46728;-84
2022/08/07 04:39:51;;;;;;;;;4.00;3.00;;;;;18.25;41.44;101995.91;6339824;22;45310;-85
2022/08/07 04:42:17;;;;;;;;;6.00;3.00;;;;;18.34;41.54;102005.56;6314738;22;45365;-85
2022/08/07 04:44:43;;;;;;;;;3.00;2.75;;;;;18.32;41.68;101999.38;6313945;22;45469;-85
2022/08/07 04:47:31;;;;;;;;;3.25;3.00;;;;;18.30;41.54;101996.72;6312584;22;46920;-85
2022/08/07 04:50:20;;;;;;;;;3.00;3.00;;;;;18.54;41.81;102040.78;6313082;22;45351;-86
2022/08/07 04:52:55;;;;;;;;;2.25;2.25;;;;;18.56;41.82;102048.78;6342193;22;45404;-85
2022/08/07 04:55:33;;;;;;;;;2.00;2.00;;;;;18.26;41.64;101995.03;6340272;22;45389;-85
2022/08/07 04:58:24;;;;;;;;;1.75;1.75;;;;;18.59;41.98;102048.72;6345325;22;45194;-85
2022/08/07 05:00:58;;;;;;;;;3.50;2.75;;;;;18.54;42.14;102054.13;6312182;22;45698;-85
2022/08/07 05:03:39;;;;;;;;;3.00;3.00;;;;;18.38;41.70;102021.47;6311614;22;44717;-85
2022/08/07 05:06:09;;;;;;;;;2.50;2.50;;;;;18.41;41.84;102015.22;6311553;22;45508;-85
2022/08/07 05:08:47;;;;;;;;;3.00;3.00;;;;;18.33;41.83;102004.66;6310701;22;47356;-84
2022/08/07 05:11:23;;;;;;;;;4.00;2.75;;;;;18.63;42.25;102059.31;6313593;22;45218;-85
2022/08/07 05:13:59;;;;;;;;;3.00;2.00;;;;;18.63;42.17;102059.31;6314885;22;44589;-84
2022/08/07 05:16:29;;;;;;;;;2.00;2.00;;;;;18.16;42.25;101991.59;6332854;22;44741;-85
2022/08/07 05:19:00;;;;;;;;;4.00;3.00;;;;;18.28;41.99;102025.19;6332877;22;47224;-84
2022/08/07 05:21:28;;;;;;;;;2.00;2.00;;;;;18.15;42.35;101996.94;6332971;22;45317;-85
2022/08/07 05:24:01;;;;;;;;;4.00;4.00;;;;;18.42;42.23;102046.31;6332171;22;45286;-85
2022/08/07 05:26:31;;;;;;;;;4.50;3.50;;;;;18.59;42.00;102070.94;6331117;22;44883;-84
2022/08/07 05:29:00;;;;;;;;;3.00;3.00;;;;;18.59;42.55;102075.38;6332582;22;45171;-85
2022/08/07 05:31:37;;;;;;;;;4.00;4.00;;;;;18.59;42.34;102084.25;6322255;22;45159;-85
2022/08/07 05:34:14;;;;;;;;;2.75;2.75;;;;;18.57;42.56;102070.06;6309555;22;45247;-85
2022/08/07 05:36:43;;;;;;;;;3.75;3.75;;;;;18.45;42.25;102056.94;6308862;22;45404;-85
2022/08/07 05:39:10;;;;;;;;;4.00;4.00;;;;;18.54;42.20;102067.44;6308645;22;48445;-85
2022/08/07 05:41:38;;;;;;;;;3.00;3.00;;;;;18.38;42.68;102042.81;6308388;22;45180;-84
2022/08/07 05:44:04;;;;;;;;;3.00;3.00;;;;;18.61;42.27;102074.47;6308508;22;45434;-84
2022/08/07 05:46:30;;;;;;;;;3.00;3.00;;;;;18.65;42.40;102083.28;6310428;22;45369;-85
2022/08/07 05:48:57;;;;;;;;;3.00;3.00;;;;;18.51;42.34;102057.72;6308196;22;47536;-84
2022/08/07 05:51:23;;;;;;;;;3.00;3.00;;;;;18.44;42.30;102049.81;6309568;22;46085;-84
2022/08/07 05:53:49;;;;;;;;;2.50;2.00;;;;;18.47;42.74;102042.69;6308343;22;45268;-84
2022/08/07 05:56:17;;;;;;;;;3.75;3.00;;;;;18.65;42.13;102062.81;6307908;22;45501;-84
2022/08/07 05:58:45;;;;;;;;;2.00;2.00;;;;;18.66;42.03;102069.06;6310209;22;48054;-84
2022/08/07 06:01:13;;;;;;;;;3.50;3.50;;;;;18.73;42.41;102073.38;6338673;22;45443;-85
2022/08/07 06:03:44;;;;;;;;;7.00;6.00;;;;;18.58;42.32;102052.28;6313956;22;45118;-84
2022/08/07 06:06:10;;;;;;;;;4.00;3.50;;;;;18.62;42.01;102059.34;6314125;22;45350;-84
2022/08/07 06:08:39;;;;;;;;;3.50;3.50;;;;;18.60;42.22;102047.78;6312672;22;46849;-84
2022/08/07 06:11:05;;;;;;;;;3.00;3.00;;;;;18.62;42.01;102052.19;6341232;22;45341;-84
2022/08/07 06:13:30;;;;;;;;;3.00;3.00;;;;;18.76;42.11;102062.69;6339214;22;45623;-84
2022/08/07 06:15:57;;;;;;;;;3.25;2.75;;;;;18.83;42.06;102069.69;6312465;22;45774;-83
2022/08/07 06:18:23;;;;;;;;;3.00;2.00;;;;;18.82;41.70;102059.94;6339746;22;47295;-83
2022/08/07 06:20:53;;;;;;;;;3.25;3.25;;;;;18.75;42.24;102041.38;6312708;22;45308;-83
2022/08/07 06:23:18;;;;;;;;;2.00;2.00;;;;;19.08;41.69;102102.16;6338928;22;45175;-84
2022/08/07 06:25:44;;;;;;;;;4.00;3.00;;;;;18.87;41.76;102052.72;6339251;22;45397;-84
2022/08/07 06:28:10;;;;;;;;;2.00;2.00;;;;;18.89;41.93;102052.69;6313055;22;47619;-87
2022/08/07 06:30:37;;;;;;;;;2.00;2.00;;;;;19.18;41.76;102097.56;6313808;22;45264;-86
2022/08/07 06:33:04;;;;;;;;;3.50;3.50;;;;;19.09;41.71;102071.91;6314623;22;45339;-86
2022/08/07 06:35:30;;;;;;;;;3.00;3.00;;;;;19.22;41.46;102085.00;6341501;22;45359;-86
2022/08/07 06:37:57;;;;;;;;;2.00;2.00;;;;;19.15;41.51;102077.13;6341769;22;45369;-86
2022/08/07 06:40:23;;;;;;;;;5.00;4.00;;;;;19.20;41.32;102077.06;6340956;22;46132;-86
2022/08/07 06:42:50;;;;;;;;;3.00;3.00;;;;;19.30;41.61;102091.09;6341065;22;45132;-86
2022/08/07 06:45:18;;;;;;;;;4.00;4.00;;;;;19.37;41.78;102095.44;6314985;22;45596;-85
2022/08/07 06:47:44;;;;;;;;;2.00;2.00;;;;;19.41;41.30;102089.13;6314452;22;47181;-85
2022/08/07 06:50:10;;;;;;;;;2.75;2.75;;;;;19.44;41.62;102091.75;6313760;22;46265;-82
2022/08/07 06:52:40;;;;;;;;;4.75;3.75;;;;;19.49;41.38;102091.66;6342070;22;45256;-84
2022/08/07 06:55:15;;;;;;;;;3.00;3.00;;;;;19.35;41.53;102054.50;6340312;22;45893;-84
2022/08/07 06:57:43;;;;;;;;;3.25;3.00;;;;;19.59;41.57;102101.22;6342258;22;45251;-84
2022/08/07 07:00:09;;;;;;;;;2.00;2.00;;;;;19.58;41.55;102094.13;6314468;22;45365;-82
2022/08/07 07:02:36;;;;;;;;;4.00;4.00;;;;;19.59;40.92;102074.50;6313404;22;45298;-83
2022/08/07 07:05:02;;;;;;;;;2.25;2.25;;;;;19.69;41.33;102084.16;6340201;22;45339;-82
2022/08/07 07:07:28;;;;;;;;;2.75;2.75;;;;;19.76;41.45;102088.47;6341463;22;45303;-82
2022/08/07 07:09:53;;;;;;;;;2.25;2.25;;;;;19.80;41.16;102087.47;6313244;22;45675;-83
2022/08/07 07:12:35;;;;;;;;;2.75;2.75;;;;;19.88;41.06;102087.31;6342475;22;45144;-83
2022/08/07 07:15:16;;;;;;;;;4.00;4.00;;;;;20.01;40.79;102094.16;6314059;22;45480;-83
2022/08/07 07:18:15;;;;;;;;;2.75;2.25;;;;;20.12;40.54;102093.06;6313183;22;47459;-83
2022/08/07 07:20:54;;;;;;;;;3.75;3.25;;;;;20.16;40.40;102081.41;6341701;22;45383;-82
2022/08/07 07:23:21;;;;;;;;;2.00;2.00;;;;;20.20;40.87;102086.63;6313474;22;45232;-82
2022/08/07 07:25:51;;;;;;;;;2.50;2.50;;;;;20.28;40.17;102083.78;6340437;22;45782;-83
2022/08/07 07:28:40;;;;;;;;;3.75;3.75;;;;;20.41;39.73;102093.28;6313701;22;48132;-81
2022/08/07 07:31:20;;;;;;;;;3.00;3.00;;;;;20.44;39.78;102084.31;6313187;22;45181;-82
2022/08/07 07:33:50;;;;;;;;;1.33;1.33;;;;;20.57;39.50;102093.84;6313637;22;45307;-78
2022/08/07 07:36:15;;;;;;;;;9.75;8.75;;;;;;;;6312808;22;45457;-79
2022/08/07 07:38:41;;;;;;;;;2.50;2.00;;;;;20.73;39.35;102089.00;6341796;22;45172;-80
2022/08/07 07:41:11;;;;;;;;;0.67;0.67;;;;;20.80;39.15;102079.91;6313410;22;45215;-78
2022/08/07 07:43:41;;;;;;;;;1.33;1.33;;;;;20.92;38.93;102084.06;6339844;22;45266;-80
2022/08/07 07:46:09;;;;;;;;;2.00;2.00;;;;;20.93;38.57;102070.66;6341181;22;45140;-80
2022/08/07 07:48:36;;;;;;;;;3.75;3.00;;;;;21.09;38.53;102086.28;6313210;22;48214;-80
2022/08/07 07:51:03;;;;;;;;;3.00;2.00;;;;;21.14;38.03;102071.91;6313011;22;45406;-80
2022/08/07 07:53:30;;;;;;;;;1.33;1.33;;;;;21.15;37.62;102070.09;6342336;22;45229;-82
2022/08/07 07:55:59;;;;;;;;;1.67;1.67;;;;;21.25;38.01;102076.06;6314545;22;45444;-80
2022/08/07 07:58:29;;;;;;;;;3.00;2.00;;;;;21.39;37.90;102076.63;6341779;22;45336;-82
2022/08/07 08:00:57;;;;;;;;;1.33;1.33;;;;;21.49;37.73;102074.53;6341546;22;45217;-81
2022/08/07 08:03:23;;;;;;;;;2.00;2.00;;;;;21.55;37.17;102075.25;6341909;22;45152;-82
2022/08/07 08:05:50;;;;;;;;;2.33;2.33;;;;;21.65;37.24;102072.31;6313215;22;45338;-82
2022/08/07 08:08:16;;;;;;;;;1.67;1.67;;;;;21.70;37.35;102073.94;6342052;22;45376;-81
2022/08/07 08:10:44;;;;;;;;;0.67;0.67;;;;;21.76;37.29;102059.50;6339653;22;45999;-81
2022/08/07 08:13:10;;;;;;;;;2.00;2.00;;;;;21.86;36.85;102062.75;6313711;22;45291;-82
2022/08/07 08:15:38;;;;;;;;;3.00;2.00;;;;;21.94;36.91;102066.09;6341490;22;45169;-82
2022/08/07 08:18:08;;;;;;;;;2.00;2.00;;;;;21.98;36.70;102065.09;6313301;22;48101;-82
2022/08/07 08:20:36;;;;;;;;;2.00;2.00;;;;;22.07;36.61;102053.19;6313264;22;45228;-83
2022/08/07 08:28:39;;;;;;;;;3.33;3.00;;;;;22.34;36.05;102052.34;6338407;22;45703;-84
2022/08/07 08:31:09;;;;;;;;;3.00;1.67;;;;;22.40;36.29;102051.28;6312253;22;45291;-83
2022/08/07 08:33:37;;;;;;;;;1.67;1.67;;;;;22.48;35.97;102045.66;6341462;22;45306;-84
2022/08/07 08:36:05;;;;;;;;;2.00;2.00;;;;;22.54;35.67;102037.44;6312802;22;45204;-83
2022/08/07 08:38:36;;;;;;;;;2.00;1.00;;;;;22.66;35.65;102043.25;6341087;22;46602;-82
2022/08/07 08:41:20;;;;;;;;;1.67;1.67;;;;;22.82;35.28;102040.06;6312548;22;45397;-82
2022/08/07 08:44:40;;;;;;;;;3.67;2.67;;;;;22.89;34.66;102039.78;6341904;22;45329;-82
2022/08/07 08:47:20;;;;;;;;;2.00;2.00;;;;;23.00;34.82;102025.16;6213376;22;45555;-81
2022/08/07 08:49:58;;;;;;;;;2.00;2.00;;;;;23.17;34.43;102035.28;6341418;22;45348;-82
2022/08/07 08:52:31;;;;;;;;;2.00;2.00;;;;;23.19;34.34;102038.81;6314369;22;45278;-82
2022/08/07 08:55:15;;;;;;;;;1.33;1.33;;;;;23.29;34.44;102035.72;6312837;22;45327;-82
2022/08/07 08:58:01;;;;;;;;;3.00;3.00;;;;;23.31;33.99;102020.44;6312743;22;45212;-82
2022/08/07 09:00:31;;;;;;;;;2.00;1.00;;;;;23.40;33.48;102029.09;6311432;22;46985;-81
2022/08/07 09:03:13;;;;;;;;;2.00;2.00;;;;;23.49;33.10;102034.97;6312196;22;45731;-81
2022/08/07 09:05:50;;;;;;;;;1.33;1.33;;;;;23.56;33.03;102036.50;6342067;22;45315;-82
2022/08/07 09:08:44;;;;;;;;;1.00;1.00;;;;;23.67;32.64;102052.25;6313309;22;45747;-81
2022/08/07 09:11:40;;;;;;;;;2.67;2.67;;;;;23.71;33.11;102040.47;6312400;22;46352;-82
2022/08/07 09:14:16;;;;;;;;;1.67;1.67;;;;;23.75;32.69;102031.34;6312499;22;45553;-87
2022/08/07 09:17:09;;;;;;;;;2.33;1.00;;;;;23.91;32.62;102041.53;6312700;22;45232;-88
2022/08/07 09:20:00;;;;;;;;;3.00;1.33;;;;;23.97;32.25;102039.44;6314065;22;45192;-87
2022/08/07 09:22:38;;;;;;;;;2.00;2.00;;;;;24.04;32.18;102042.81;6314947;22;47428;-88
2022/08/07 09:25:10;;;;;;;;;2.67;2.33;;;;;24.04;32.24;102041.94;6313166;22;45213;-87
2022/08/07 09:27:38;;;;;;;;;2.67;2.67;;;;;24.07;32.08;102044.50;6312483;22;45262;-82
2022/08/07 09:30:08;;;;;;;;;2.00;2.00;;;;;24.10;32.35;102047.94;6340363;22;45421;-85
2022/08/07 09:33:02;;;;;;;;;3.00;3.00;;;;;24.14;32.72;102041.50;6306278;22;47394;-82
2022/08/07 09:35:41;;;;;;;;;2.67;2.67;;;;;24.22;32.18;102041.19;6311370;22;45366;-80
2022/08/07 09:38:24;;;;;;;;;1.33;1.33;;;;;24.28;32.30;102034.69;6339052;22;45482;-81
2022/08/07 09:41:08;;;;;;;;;2.00;2.00;;;;;24.25;32.20;102027.63;6339336;22;45323;-82
2022/08/07 09:43:45;;;;;;;;;3.00;3.00;;;;;24.34;32.00;102040.69;6310098;22;48443;-83
2022/08/07 09:46:33;;;;;;;;;3.67;3.00;;;;;24.41;31.24;102034.13;6310350;22;45397;-83
2022/08/07 09:49:04;;;;;;;;;4.00;4.00;;;;;24.49;31.09;102025.75;6310970;22;45529;-82
2022/08/07 09:52:10;;;;;;;;;2.00;2.00;;;;;24.60;31.38;102026.19;6311232;22;45408;-82
2022/08/07 09:55:14;;;;;;;;;4.00;4.00;;;;;24.67;31.10;102028.59;6310451;22;47205;-81
2022/08/07 09:57:54;;;;;;;;;2.33;2.33;;;;;24.67;30.52;102026.78;6290866;22;45511;-82
2022/08/07 10:00:23;;;;;;;;;2.67;2.67;;;;;24.70;30.83;102028.47;6308892;22;45412;-82
2022/08/07 10:03:10;;;;;;;;;2.00;2.00;;;;;24.77;30.66;102022.75;6310600;22;45441;-82
2022/08/07 10:06:03;;;;;;;;;3.00;3.00;;;;;24.83;31.12;102019.81;6308281;22;47113;-79
2022/08/07 10:09:04;;;;;;;;;3.00;3.00;;;;;24.91;30.70;102015.91;6310526;22;45850;-81
2022/08/07 10:11:54;;;;;;;;;3.00;3.00;;;;;24.95;30.81;102009.44;6310591;22;45295;-84
2022/08/07 10:14:25;;;;;;;;;3.25;3.25;;;;;24.98;30.38;102010.19;6340571;22;45605;-83
2022/08/07 10:17:27;;;;;;;;;4.33;3.33;;;;;25.02;30.69;102001.03;6311253;22;47116;-83
2022/08/07 10:20:08;;;;;;;;;4.00;4.00;;;;;25.06;30.15;102001.75;6310562;22;45596;-87
2022/08/07 10:23:01;;;;;;;;;3.33;3.33;;;;;24.98;30.28;102004.78;6312249;22;45516;-83
2022/08/07 10:25:39;;;;;;;;;3.33;2.67;;;;;24.96;29.64;102003.97;6311772;22;45654;-85
2022/08/07 10:28:18;;;;;;;;;4.33;4.00;;;;;25.00;30.18;101999.34;6311509;22;47994;-83
2022/08/07 10:31:14;;;;;;;;;2.33;2.00;;;;;25.10;30.05;101995.31;6340406;22;45202;-81
2022/08/07 10:33:51;;;;;;;;;5.00;5.00;;;;;25.17;29.85;101988.72;6313425;22;45390;-81
2022/08/07 10:37:05;;;;;;;;;4.00;4.00;;;;;25.22;29.19;101985.81;6311748;22;45228;-83
2022/08/07 10:39:55;;;;;;;;;4.00;4.00;;;;;25.31;29.89;101988.06;6301568;22;46925;-84
2022/08/07 10:42:33;;;;;;;;;2.67;2.67;;;;;25.41;29.02;101975.94;6311516;22;45741;-82
2022/08/07 10:45:13;;;;;;;;;3.00;3.00;;;;;25.67;28.34;101972.03;6339745;22;45411;-81
2022/08/07 10:48:06;;;;;;;;;2.33;2.33;;;;;26.01;27.79;101980.34;6339608;22;45369;-82
2022/08/07 10:50:49;;;;;;;;;4.50;4.50;;;;;26.23;27.92;101967.53;6339488;22;46670;-82
2022/08/07 10:53:44;;;;;;;;;3.75;3.75;;;;;26.52;27.85;101974.19;6338787;22;45168;-82
2022/08/07 10:56:18;;;;;;;;;4.00;4.00;;;;;26.75;27.51;101961.31;6338371;22;45304;-82
2022/08/07 10:58:49;;;;;;;;;3.00;2.67;;;;;26.97;27.07;101970.06;6340208;22;45499;-83
2022/08/07 11:01:30;;;;;;;;;3.67;3.67;;;;;27.11;26.97;101954.94;6310893;22;45972;-81
2022/08/07 11:04:07;;;;;;;;;2.33;2.33;;;;;27.34;26.87;101954.56;6311753;22;45366;-81
2022/08/07 11:06:40;;;;;;;;;3.67;3.67;;;;;27.59;26.31;101959.50;6313106;22;45172;-83
2022/08/07 11:09:17;;;;;;;;;8.00;7.00;;;;;27.75;26.61;101958.63;6341451;22;45427;-82
2022/08/07 11:12:00;;;;;;;;;3.33;3.33;;;;;27.72;26.19;101948.88;6341954;22;45262;-82
2022/08/07 11:14:48;;;;;;;;;3.00;3.00;;;;;27.68;26.35;101945.44;6313384;22;45273;-83
2022/08/07 11:17:37;;;;;;;;;4.00;4.00;;;;;27.69;25.56;101958.03;6340758;22;45353;-83
2022/08/07 11:20:13;;;;;;;;;3.25;3.25;;;;;27.74;25.47;101941.50;6291356;22;45575;-83
2022/08/07 11:22:57;;;;;;;;;3.50;3.50;;;;;27.86;25.42;101935.44;6313188;22;47250;-84
2022/08/07 11:26:19;;;;;;;;;3.75;3.75;;;;;27.98;25.01;101933.84;6341309;22;45359;-83
2022/08/07 11:28:51;;;;;;;;;4.25;4.25;;;;;28.07;25.56;101924.34;6214482;22;45314;-84
2022/08/07 11:31:26;;;;;;;;;3.75;3.75;;;;;28.17;24.62;101936.34;6310041;22;45279;-84
2022/08/07 11:34:07;;;;;;;;;3.33;3.33;;;;;28.22;24.78;101926.13;6313123;22;47075;-84
2022/08/07 11:36:56;;;;;;;;;2.00;2.00;;;;;28.37;25.18;101929.75;6339566;22;45302;-84
2022/08/07 11:39:47;;;;;;;;;4.00;4.00;;;;;28.51;24.49;101920.84;6342042;22;45288;-82
2022/08/07 11:42:42;;;;;;;;;5.00;4.00;;;;;28.60;24.33;101914.84;6313198;22;45275;-82
2022/08/07 11:45:25;;;;;;;;;2.33;2.33;;;;;28.73;24.26;101914.97;6294897;22;45399;-83
2022/08/07 11:48:30;;;;;;;;;5.00;3.75;;;;;28.80;23.96;101905.50;6341678;22;45274;-82
2022/08/07 11:51:26;;;;;;;;;3.00;3.00;;;;;28.87;23.49;101906.88;6313176;22;45291;-83
2022/08/07 11:54:10;;;;;;;;;2.50;2.50;;;;;28.82;24.28;101914.41;6341347;22;45244;-82
2022/08/07 11:57:03;;;;;;;;;3.25;3.25;;;;;28.71;23.44;101908.75;6313147;22;47056;-82
2022/08/07 11:59:43;;;;;;;;;3.50;3.50;;;;;28.72;23.46;101914.09;6312548;22;45390;-83